Time;durP1;ratioP1;P1;durP2;ratioP2;P2;SDS_P1;SDS_P2;PMS_P1;PMS_P2;Temp;Humidity;BMP_temperature;BMP_pressure;BME280_temperature;BME280_humidity;BME280_pressure;Samples;Min_cycle;Max_cycle;Signal;HPM_P1;HPM_P2
2021/07/30 00:00:05;;;;;;;6.07;2.65;;;21.50;65.60;;;;;;5099422;28;20062;-72
2021/07/30 00:02:32;;;;;;;4.03;2.28;;;21.50;65.60;;;;;;5099305;28;20040;-72
2021/07/30 00:04:58;;;;;;;4.60;2.72;;;21.50;65.60;;;;;;5099124;28;20479;-72
2021/07/30 00:07:25;;;;;;;5.53;2.67;;;21.50;65.60;;;;;;5099288;28;20055;-72
2021/07/30 00:09:55;;;;;;;5.45;2.40;;;21.50;65.60;;;;;;5098827;28;20055;-72
2021/07/30 00:12:20;;;;;;;5.63;2.85;;;21.50;65.60;;;;;;5098866;28;20054;-72
2021/07/30 00:14:46;;;;;;;7.72;3.40;;;21.50;65.60;;;;;;5099188;28;20040;-72
2021/07/30 00:17:12;;;;;;;5.03;2.97;;;21.50;65.70;;;;;;5098778;28;20039;-72
2021/07/30 00:19:38;;;;;;;5.35;3.45;;;21.40;65.60;;;;;;5099229;28;20075;-72
2021/07/30 00:22:04;;;;;;;5.38;2.92;;;21.40;65.70;;;;;;5098629;28;20344;-72
2021/07/30 00:24:29;;;;;;;7.18;3.30;;;21.50;65.70;;;;;;5098914;28;20036;-72
2021/07/30 00:26:55;;;;;;;6.10;3.00;;;21.40;65.70;;;;;;5098763;28;20046;-72
2021/07/30 00:29:21;;;;;;;5.97;2.83;;;21.40;65.70;;;;;;5098633;28;20073;-72
2021/07/30 00:31:47;;;;;;;5.40;2.90;;;21.40;65.80;;;;;;5098566;28;20399;-72
2021/07/30 00:34:13;;;;;;;5.13;2.88;;;21.50;65.80;;;;;;5098259;28;20044;-72
2021/07/30 00:36:38;;;;;;;6.65;3.28;;;21.40;65.80;;;;;;5098724;28;20071;-72
2021/07/30 00:39:04;;;;;;;3.88;2.60;;;21.40;65.80;;;;;;5098653;28;20375;-72
2021/07/30 00:41:35;;;;;;;5.80;3.05;;;21.40;65.80;;;;;;5098356;28;20522;-72
2021/07/30 00:44:02;;;;;;;5.72;3.22;;;21.40;65.80;;;;;;5098646;28;20048;-72
2021/07/30 00:46:28;;;;;;;6.72;2.97;;;21.40;65.80;;;;;;5098374;28;20044;-71
2021/07/30 00:48:55;;;;;;;5.78;3.10;;;21.40;65.80;;;;;;5098741;28;20114;-72
2021/07/30 00:51:22;;;;;;;5.07;3.08;;;21.40;65.90;;;;;;5098880;28;20052;-72
2021/07/30 00:53:49;;;;;;;5.47;3.05;;;21.40;65.90;;;;;;5098073;28;20446;-72
2021/07/30 00:56:16;;;;;;;7.82;3.78;;;21.40;65.90;;;;;;5098496;28;20040;-72
2021/07/30 00:58:43;;;;;;;5.93;3.28;;;21.40;65.90;;;;;;5098026;28;20052;-72
2021/07/30 01:01:09;;;;;;;6.63;3.42;;;21.40;65.90;;;;;;5098127;28;20039;-72
2021/07/30 01:03:35;;;;;;;7.15;3.53;;;21.40;66.00;;;;;;5097437;28;20043;-72
2021/07/30 01:06:01;;;;;;;7.18;3.00;;;21.40;66.00;;;;;;5098319;28;20051;-72
2021/07/30 01:08:27;;;;;;;6.13;3.20;;;21.40;65.90;;;;;;5098397;28;20044;-72
2021/07/30 01:10:53;;;;;;;4.78;2.85;;;21.40;65.90;;;;;;5098325;28;20064;-72
2021/07/30 01:13:19;;;;;;;6.38;3.13;;;21.40;66.00;;;;;;5097690;28;20095;-72
2021/07/30 01:15:45;;;;;;;5.78;3.13;;;21.40;66.00;;;;;;5097799;28;20075;-72
2021/07/30 01:18:11;;;;;;;4.88;3.22;;;21.40;66.60;;;;;;5098127;28;20071;-72
2021/07/30 01:20:41;;;;;;;5.68;3.72;;;21.40;65.90;;;;;;5098357;28;20043;-72
2021/07/30 01:23:09;;;;;;;4.85;3.53;;;21.40;66.00;;;;;;5097341;28;20355;-72
2021/07/30 01:25:35;;;;;;;7.65;3.28;;;21.30;66.00;;;;;;5098013;28;20036;-72
2021/07/30 01:28:01;;;;;;;6.22;3.22;;;21.40;66.00;;;;;;5097724;28;20120;-72
2021/07/30 01:30:27;;;;;;;6.25;3.40;;;21.40;66.00;;;;;;5097468;28;20040;-72
2021/07/30 01:32:53;;;;;;;5.25;3.53;;;21.40;66.00;;;;;;5097035;28;20469;-71
2021/07/30 01:35:19;;;;;;;7.53;3.60;;;21.30;66.00;;;;;;5097723;28;20051;-72
2021/07/30 01:37:45;;;;;;;8.10;3.97;;;21.30;66.00;;;;;;5097695;28;20036;-72
2021/07/30 01:40:11;;;;;;;6.82;3.58;;;21.30;66.00;;;;;;5097345;28;20150;-72
2021/07/30 01:42:38;;;;;;;5.13;3.50;;;21.30;66.00;;;;;;5097277;28;20051;-72
2021/07/30 01:45:08;;;;;;;6.93;3.22;;;21.30;66.00;;;;;;5097801;28;20047;-72
2021/07/30 01:47:35;;;;;;;6.45;3.40;;;21.40;66.10;;;;;;5097401;28;20053;-72
2021/07/30 01:50:01;;;;;;;6.75;3.40;;;21.30;66.10;;;;;;5097569;28;20055;-72
2021/07/30 01:52:27;;;;;;;5.32;3.80;;;21.30;66.10;;;;;;5096797;28;20350;-72
2021/07/30 01:54:53;;;;;;;6.35;3.33;;;21.30;66.00;;;;;;5097003;28;20119;-72
2021/07/30 01:57:19;;;;;;;5.22;3.47;;;21.30;66.10;;;;;;5097469;28;20458;-72
2021/07/30 01:59:45;;;;;;;4.90;3.28;;;21.30;66.10;;;;;;5097107;28;20317;-72
2021/07/30 02:02:11;;;;;;;6.43;3.65;;;21.30;66.10;;;;;;5097574;28;20050;-72
2021/07/30 02:04:37;;;;;;;7.28;3.35;;;21.30;66.10;;;;;;5097365;28;20044;-72
2021/07/30 02:07:03;;;;;;;6.32;3.45;;;21.30;66.20;;;;;;5097339;28;20040;-72
2021/07/30 02:09:32;;;;;;;6.00;3.45;;;21.30;66.20;;;;;;5096558;28;20127;-72
2021/07/30 02:11:59;;;;;;;6.72;3.65;;;21.30;66.20;;;;;;5096522;28;20123;-72
2021/07/30 02:14:28;;;;;;;6.22;3.90;;;21.30;66.20;;;;;;5095626;28;20086;-72
2021/07/30 02:16:55;;;;;;;7.32;3.83;;;21.30;66.20;;;;;;5096708;28;20063;-72
2021/07/30 02:19:24;;;;;;;5.40;3.65;;;21.30;66.20;;;;;;5096604;28;20031;-72
2021/07/30 02:21:52;;;;;;;7.50;4.32;;;21.30;66.20;;;;;;5096552;28;20036;-72
2021/07/30 02:24:18;;;;;;;6.20;3.40;;;21.30;66.20;;;;;;5096493;28;20043;-72
2021/07/30 02:26:45;;;;;;;7.72;3.70;;;21.30;66.20;;;;;;5096469;28;20050;-72
2021/07/30 02:29:11;;;;;;;5.75;3.45;;;21.20;66.20;;;;;;5096273;28;20054;-72
2021/07/30 02:31:38;;;;;;;8.35;4.00;;;21.20;66.20;;;;;;5078874;28;20058;-72
2021/07/30 02:34:09;;;;;;;7.43;4.03;;;21.30;66.20;;;;;;5096396;28;20350;-72
2021/07/30 02:36:35;;;;;;;6.03;4.00;;;21.30;66.20;;;;;;5078340;28;20055;-72
2021/07/30 02:39:01;;;;;;;5.50;3.72;;;21.30;66.30;;;;;;5096131;28;20071;-72
2021/07/30 02:41:27;;;;;;;6.05;4.18;;;21.20;66.20;;;;;;5096610;28;20036;-72
2021/07/30 02:43:53;;;;;;;5.38;3.63;;;21.20;66.20;;;;;;5096497;28;20054;-72
2021/07/30 02:46:19;;;;;;;5.00;3.75;;;21.20;66.30;;;;;;5095823;28;20044;-72
2021/07/30 02:48:46;;;;;;;7.10;4.18;;;21.20;66.30;;;;;;5095899;28;20040;-72
2021/07/30 02:51:12;;;;;;;6.53;4.00;;;21.20;66.20;;;;;;5096165;28;20039;-72
2021/07/30 02:53:39;;;;;;;5.80;3.75;;;21.20;66.20;;;;;;5095866;28;20120;-72
2021/07/30 02:56:08;;;;;;;5.05;3.20;;;21.20;66.30;;;;;;5095886;28;20078;-72
2021/07/30 02:58:36;;;;;;;8.55;3.60;;;21.20;66.30;;;;;;5096191;28;20052;-72
2021/07/30 03:01:02;;;;;;;6.18;3.78;;;21.20;66.30;;;;;;5095703;28;20070;-72
2021/07/30 03:03:28;;;;;;;6.60;4.30;;;21.20;66.30;;;;;;5096021;28;20451;-72
2021/07/30 03:05:56;;;;;;;5.72;4.22;;;21.20;66.30;;;;;;5095411;28;20050;-72
2021/07/30 03:08:22;;;;;;;7.43;3.60;;;21.20;66.30;;;;;;5095777;28;20126;-72
2021/07/30 03:10:59;;;;;;;6.40;4.25;;;21.20;66.30;;;;;;5095418;28;20443;-72
2021/07/30 03:13:25;;;;;;;7.97;4.35;;;21.20;66.40;;;;;;5095604;28;20481;-72
2021/07/30 03:15:55;;;;;;;5.45;3.45;;;21.20;66.40;;;;;;5096140;28;20043;-72
2021/07/30 03:18:22;;;;;;;8.55;4.10;;;21.20;66.40;;;;;;5095765;28;20050;-72
2021/07/30 03:20:48;;;;;;;6.43;4.10;;;21.20;66.30;;;;;;5095412;28;20064;-72
2021/07/30 03:23:14;;;;;;;7.60;4.35;;;21.20;66.40;;;;;;5095302;28;20043;-72
2021/07/30 03:25:39;;;;;;;6.30;3.63;;;21.20;66.40;;;;;;5095252;28;20046;-72
2021/07/30 03:28:05;;;;;;;5.50;3.60;;;21.20;66.40;;;;;;5095355;28;20044;-72
2021/07/30 03:30:46;;;;;;;7.13;4.20;;;21.20;66.40;;;;;;5095459;28;20116;-72
2021/07/30 03:33:12;;;;;;;6.00;4.03;;;21.20;66.40;;;;;;5095840;28;20378;-72
2021/07/30 03:35:38;;;;;;;7.05;3.95;;;21.20;66.40;;;;;;5095792;28;20442;-72
2021/07/30 03:38:04;;;;;;;6.60;4.15;;;21.20;66.40;;;;;;5095124;28;20051;-72
2021/07/30 03:40:29;;;;;;;6.85;4.70;;;21.20;66.40;;;;;;5095425;28;20465;-72
2021/07/30 03:42:55;;;;;;;7.65;4.38;;;21.20;66.50;;;;;;5094996;28;20113;-72
2021/07/30 03:45:21;;;;;;;5.65;4.20;;;21.20;66.50;;;;;;5095552;28;20068;-72
2021/07/30 03:47:47;;;;;;;5.63;3.63;;;21.10;66.40;;;;;;5095291;28;20032;-72
2021/07/30 03:50:13;;;;;;;6.28;4.50;;;21.10;66.40;;;;;;5094688;28;20097;-72
2021/07/30 03:52:39;;;;;;;11.73;4.40;;;21.20;66.50;;;;;;5094949;28;20078;-72
2021/07/30 03:55:06;;;;;;;6.13;3.67;;;21.10;66.40;;;;;;5095571;28;20064;-72
2021/07/30 03:57:32;;;;;;;8.18;4.18;;;21.20;66.50;;;;;;5095017;28;20040;-72
2021/07/30 03:59:58;;;;;;;5.88;3.90;;;21.20;66.50;;;;;;5094797;28;20351;-72
2021/07/30 04:02:23;;;;;;;7.25;3.80;;;21.10;66.50;;;;;;5094809;28;20402;-72
2021/07/30 04:04:49;;;;;;;6.22;3.88;;;21.10;66.50;;;;;;5094933;28;20047;-72
2021/07/30 04:07:15;;;;;;;5.63;3.90;;;21.10;66.50;;;;;;5094861;28;20043;-72
2021/07/30 04:09:41;;;;;;;7.82;4.53;;;21.10;66.50;;;;;;5095528;28;20040;-72
2021/07/30 04:12:09;;;;;;;6.95;4.32;;;21.10;66.50;;;;;;5094856;28;20055;-71
2021/07/30 04:14:36;;;;;;;7.85;4.65;;;21.10;66.50;;;;;;5094680;28;20063;-72
2021/07/30 04:17:01;;;;;;;7.35;4.30;;;21.10;66.50;;;;;;5095018;28;20040;-72
2021/07/30 04:19:27;;;;;;;7.00;4.25;;;21.10;66.60;;;;;;5094889;28;20054;-72
2021/07/30 04:21:53;;;;;;;5.47;4.03;;;21.10;66.60;;;;;;5094690;28;20063;-72
2021/07/30 04:24:19;;;;;;;7.03;3.95;;;21.10;66.60;;;;;;5095182;28;20044;-72
2021/07/30 04:26:45;;;;;;;5.53;4.53;;;21.10;66.60;;;;;;5094779;28;20052;-72
2021/07/30 04:29:11;;;;;;;5.90;4.13;;;21.10;66.60;;;;;;5094769;28;20439;-72
2021/07/30 04:31:40;;;;;;;7.07;4.00;;;21.10;66.60;;;;;;5095246;28;20032;-72
2021/07/30 04:34:07;;;;;;;5.88;3.83;;;21.10;66.60;;;;;;5094792;28;20051;-73
2021/07/30 04:36:33;;;;;;;5.40;3.95;;;21.10;66.60;;;;;;5095178;28;20035;-72
2021/07/30 04:38:59;;;;;;;7.10;4.32;;;21.10;66.60;;;;;;5097787;28;20447;-72
2021/07/30 04:41:25;;;;;;;5.40;3.83;;;21.10;66.60;;;;;;5098617;28;20067;-72
2021/07/30 04:43:51;;;;;;;7.10;3.88;;;21.10;66.70;;;;;;5098664;28;20044;-72
2021/07/30 04:46:19;;;;;;;5.68;3.70;;;21.10;66.70;;;;;;5098343;28;20035;-72
2021/07/30 04:48:45;;;;;;;6.95;4.22;;;21.10;66.70;;;;;;5098212;28;20059;-72
2021/07/30 04:51:12;;;;;;;5.38;3.65;;;21.10;66.60;;;;;;5097850;28;20438;-72
2021/07/30 04:53:38;;;;;;;5.63;4.07;;;21.10;66.70;;;;;;5098219;28;20044;-72
2021/07/30 04:56:04;;;;;;;6.22;4.15;;;21.10;66.70;;;;;;5098450;28;20047;-72
2021/07/30 04:58:30;;;;;;;5.13;4.00;;;21.10;66.70;;;;;;5098113;28;20047;-72
2021/07/30 05:00:56;;;;;;;6.60;3.70;;;21.10;66.70;;;;;;5097839;28;20037;-72
2021/07/30 05:03:21;;;;;;;7.75;4.20;;;21.10;66.70;;;;;;5097724;28;20051;-72
2021/07/30 05:05:47;;;;;;;5.45;3.63;;;21.10;66.70;;;;;;5097710;28;20054;-72
2021/07/30 05:08:14;;;;;;;7.10;4.53;;;21.10;66.70;;;;;;5097819;28;20074;-72
2021/07/30 05:10:40;;;;;;;6.40;3.60;;;21.00;66.70;;;;;;5097799;28;20040;-72
2021/07/30 05:13:06;;;;;;;6.63;4.05;;;21.00;66.70;;;;;;5097868;28;20075;-72
2021/07/30 05:15:32;;;;;;;6.25;4.30;;;21.10;66.70;;;;;;5097822;28;20115;-72
2021/07/30 05:17:59;;;;;;;6.13;3.85;;;21.10;66.70;;;;;;5097599;28;20052;-72
2021/07/30 05:20:37;;;;;;;5.47;3.92;;;21.10;66.70;;;;;;5097638;28;20044;-72
2021/07/30 05:23:02;;;;;;;6.55;3.90;;;21.00;66.70;;;;;;5097648;28;20050;-72
2021/07/30 05:25:28;;;;;;;7.10;3.50;;;21.10;66.80;;;;;;5097684;28;20576;-72
2021/07/30 05:27:54;;;;;;;6.85;4.30;;;21.00;66.70;;;;;;5097529;28;20347;-72
2021/07/30 05:30:20;;;;;;;5.25;3.78;;;21.10;66.80;;;;;;5097392;28;20058;-72
2021/07/30 05:32:46;;;;;;;6.10;3.80;;;21.10;66.80;;;;;;5097057;28;20459;-72
2021/07/30 05:35:12;;;;;;;6.82;3.63;;;21.10;66.80;;;;;;5097997;28;20111;-72
2021/07/30 05:37:38;;;;;;;7.13;4.00;;;21.10;66.80;;;;;;5097364;28;20040;-72
2021/07/30 05:40:04;;;;;;;6.25;3.90;;;21.10;66.80;;;;;;5097244;28;20048;-72
2021/07/30 05:42:30;;;;;;;6.28;3.88;;;21.10;66.80;;;;;;5097231;28;20044;-72
2021/07/30 05:44:56;;;;;;;8.07;3.72;;;21.10;66.80;;;;;;5097240;28;20117;-72
2021/07/30 05:47:22;;;;;;;8.02;4.20;;;21.10;66.80;;;;;;5097082;28;20367;-72
2021/07/30 05:49:48;;;;;;;7.35;4.10;;;21.10;66.80;;;;;;5097369;28;20129;-72
2021/07/30 05:52:13;;;;;;;6.60;3.90;;;21.10;66.80;;;;;;5096913;28;20040;-72
2021/07/30 05:54:40;;;;;;;7.03;3.97;;;21.10;66.80;;;;;;5097415;28;20040;-72
2021/07/30 05:57:06;;;;;;;5.38;3.47;;;21.10;66.80;;;;;;5097168;28;20047;-72
2021/07/30 05:59:32;;;;;;;5.85;3.42;;;21.10;66.80;;;;;;5096675;28;20060;-72
2021/07/30 06:01:58;;;;;;;7.75;4.10;;;21.10;66.80;;;;;;5096812;28;20036;-72
2021/07/30 06:04:23;;;;;;;6.45;3.85;;;21.10;66.80;;;;;;5096761;28;20049;-72
2021/07/30 06:06:49;;;;;;;6.80;3.92;;;21.10;67.50;;;;;;5097154;28;20048;-71
2021/07/30 06:09:15;;;;;;;5.18;3.53;;;21.10;66.90;;;;;;5096630;28;20114;-72
2021/07/30 06:11:41;;;;;;;6.90;4.03;;;21.10;66.90;;;;;;5096651;28;20040;-72
2021/07/30 06:14:06;;;;;;;5.20;3.53;;;21.10;66.90;;;;;;5096975;28;20044;-72
2021/07/30 06:16:33;;;;;;;5.57;3.33;;;21.10;66.90;;;;;;5097080;28;20132;-72
2021/07/30 06:18:58;;;;;;;6.88;3.72;;;21.10;66.80;;;;;;5097041;28;20079;-72
2021/07/30 06:21:24;;;;;;;4.40;3.08;;;21.10;66.90;;;;;;5096529;28;20069;-72
2021/07/30 06:23:50;;;;;;;5.80;3.40;;;21.10;66.90;;;;;;5096419;28;20048;-72
2021/07/30 06:26:16;;;;;;;6.20;3.63;;;21.10;67.40;;;;;;5096433;28;20040;-72
2021/07/30 06:28:42;;;;;;;5.85;3.20;;;21.10;66.80;;;;;;5096255;28;20036;-72
2021/07/30 06:31:07;;;;;;;6.97;3.53;;;21.10;66.80;;;;;;5096174;28;20093;-72
2021/07/30 06:33:33;;;;;;;6.30;3.30;;;21.10;66.90;;;;;;5096858;28;20062;-72
2021/07/30 06:35:59;;;;;;;4.95;3.60;;;21.10;66.90;;;;;;5096741;28;20058;-72
2021/07/30 06:38:24;;;;;;;5.43;3.17;;;21.20;66.90;;;;;;5096778;28;20044;-72
2021/07/30 06:40:50;;;;;;;5.13;3.42;;;21.20;66.90;;;;;;5096107;28;20400;-72
2021/07/30 06:43:16;;;;;;;7.15;3.70;;;21.20;67.00;;;;;;5096016;28;20059;-72
2021/07/30 06:45:44;;;;;;;5.72;3.35;;;21.20;67.00;;;;;;5095975;28;20069;-72
2021/07/30 06:48:11;;;;;;;5.07;3.50;;;21.20;67.00;;;;;;5096247;28;20510;-72
2021/07/30 06:50:37;;;;;;;5.32;3.17;;;21.20;67.00;;;;;;5096611;28;20040;-72
2021/07/30 06:53:03;;;;;;;5.97;3.22;;;21.20;67.00;;;;;;5095881;28;20511;-72
2021/07/30 06:55:29;;;;;;;5.35;3.92;;;21.30;67.00;;;;;;5096491;28;20048;-72
2021/07/30 06:57:55;;;;;;;6.57;3.67;;;21.20;67.00;;;;;;5095769;28;20044;-72
2021/07/30 07:00:20;;;;;;;5.22;3.47;;;21.30;67.10;;;;;;5095319;28;20056;-71
2021/07/30 07:02:46;;;;;;;5.07;3.70;;;21.30;67.10;;;;;;5095857;28;20050;-71
2021/07/30 07:05:12;;;;;;;6.47;3.78;;;21.30;67.00;;;;;;5095532;28;20059;-72
2021/07/30 07:07:38;;;;;;;5.18;3.10;;;21.30;67.00;;;;;;5096087;28;20461;-72
2021/07/30 07:10:04;;;;;;;5.65;3.83;;;21.30;67.00;;;;;;5095578;28;20044;-72
2021/07/30 07:12:30;;;;;;;4.68;2.88;;;21.30;67.00;;;;;;5096094;28;20046;-72
2021/07/30 07:14:56;;;;;;;5.07;3.50;;;21.40;67.00;;;;;;5095159;28;20134;-72
2021/07/30 07:17:22;;;;;;;6.50;3.17;;;21.40;67.00;;;;;;5095480;28;20380;-72
2021/07/30 07:19:48;;;;;;;5.78;3.35;;;21.40;67.00;;;;;;5095307;28;20075;-71
2021/07/30 07:22:14;;;;;;;5.28;3.17;;;21.40;66.90;;;;;;5095496;28;20101;-71
2021/07/30 07:24:40;;;;;;;4.80;3.40;;;21.40;66.90;;;;;;5095356;28;20047;-72
2021/07/30 07:27:07;;;;;;;5.30;3.03;;;21.40;66.90;;;;;;5095869;28;20044;-71
2021/07/30 07:29:33;;;;;;;6.75;3.92;;;21.50;66.90;;;;;;5095000;28;20032;-71
2021/07/30 07:32:00;;;;;;;5.63;3.15;;;21.50;66.90;;;;;;5096053;28;20068;-72
2021/07/30 07:34:26;;;;;;;5.97;3.20;;;21.40;66.80;;;;;;5095287;28;20047;-72
2021/07/30 07:36:52;;;;;;;5.65;3.35;;;21.40;66.80;;;;;;5095810;28;20127;-72
2021/07/30 07:39:18;;;;;;;5.68;3.47;;;21.40;66.80;;;;;;5095157;28;20127;-71
2021/07/30 07:41:44;;;;;;;6.22;3.47;;;21.40;66.80;;;;;;5095208;28;20130;-72
2021/07/30 07:44:18;;;;;;;6.25;3.05;;;21.40;66.90;;;;;;5095657;28;20452;-72
2021/07/30 07:46:45;;;;;;;4.63;2.67;;;21.50;66.90;;;;;;5095893;28;20051;-72
2021/07/30 07:49:10;;;;;;;4.95;3.28;;;21.50;66.90;;;;;;5095017;28;20044;-72
2021/07/30 07:51:36;;;;;;;4.55;3.03;;;21.50;66.90;;;;;;5094874;28;20104;-72
2021/07/30 07:54:05;;;;;;;5.53;3.33;;;21.50;67.00;;;;;;5094920;28;20416;-72
2021/07/30 07:56:31;;;;;;;4.75;3.00;;;21.50;66.90;;;;;;5094966;28;20036;-72
2021/07/30 07:58:58;;;;;;;4.97;3.28;;;21.50;66.90;;;;;;5094892;28;20427;-72
2021/07/30 08:01:23;;;;;;;6.95;2.80;;;21.50;66.90;;;;;;5095597;28;20070;-72
2021/07/30 08:03:49;;;;;;;6.28;3.25;;;21.50;66.90;;;;;;5095030;28;20435;-72
2021/07/30 08:06:20;;;;;;;5.53;3.33;;;21.50;66.90;;;;;;5095100;28;20044;-71
2021/07/30 08:08:46;;;;;;;5.88;3.10;;;21.50;66.90;;;;;;5095519;28;20113;-71
2021/07/30 08:11:12;;;;;;;4.85;3.30;;;21.50;67.00;;;;;;5093098;28;20047;-72
2021/07/30 08:13:39;;;;;;;5.97;3.60;;;21.50;66.90;;;;;;5085555;28;20040;-72
2021/07/30 08:16:05;;;;;;;4.75;2.90;;;21.60;67.00;;;;;;5098970;28;20495;-72
2021/07/30 08:18:32;;;;;;;5.05;3.20;;;21.50;66.90;;;;;;5099360;28;20127;-72
2021/07/30 08:20:59;;;;;;;4.28;3.05;;;21.50;67.50;;;;;;5099225;28;20040;-72
2021/07/30 08:23:25;;;;;;;5.10;3.05;;;21.60;67.00;;;;;;5099302;28;20048;-72
2021/07/30 08:25:51;;;;;;;4.72;2.90;;;21.60;67.00;;;;;;5098936;28;20047;-72
2021/07/30 08:28:17;;;;;;;5.47;3.05;;;21.60;67.10;;;;;;5098724;28;20051;-72
2021/07/30 08:30:43;;;;;;;5.57;2.78;;;21.60;67.10;;;;;;5098716;28;20043;-72
2021/07/30 08:33:10;;;;;;;5.20;2.90;;;21.60;67.10;;;;;;5098567;28;20048;-71
2021/07/30 08:35:35;;;;;;;4.70;2.83;;;21.60;67.10;;;;;;5098845;28;20106;-72
2021/07/30 08:38:02;;;;;;;4.80;2.72;;;21.60;67.10;;;;;;5098257;28;20063;-72
2021/07/30 08:40:34;;;;;;;5.63;3.25;;;21.60;67.10;;;;;;5098500;28;20063;-72
2021/07/30 08:43:00;;;;;;;5.95;2.60;;;21.60;67.00;;;;;;5098260;28;20124;-72
2021/07/30 08:45:26;;;;;;;4.30;3.08;;;21.60;67.10;;;;;;5098478;28;20040;-72
2021/07/30 08:47:54;;;;;;;4.90;3.20;;;21.60;67.10;;;;;;5098829;28;20044;-72
2021/07/30 08:50:20;;;;;;;5.95;2.97;;;21.60;67.10;;;;;;5098334;28;20055;-72
2021/07/30 08:52:54;;;;;;;7.07;3.42;;;21.60;67.10;;;;;;5098224;28;20056;-72
2021/07/30 08:55:28;;;;;;;5.85;3.28;;;21.60;67.10;;;;;;5098783;28;20040;-72
2021/07/30 08:57:54;;;;;;;4.47;2.70;;;21.60;67.00;;;;;;5098175;28;20051;-72
2021/07/30 09:00:21;;;;;;;5.22;3.20;;;21.60;67.00;;;;;;5097860;28;20044;-72
2021/07/30 09:02:47;;;;;;;4.25;2.85;;;21.60;67.00;;;;;;5097972;28;20102;-72
2021/07/30 09:05:26;;;;;;;4.85;3.30;;;21.60;67.00;;;;;;5098012;28;20047;-72
2021/07/30 09:07:52;;;;;;;5.35;2.92;;;21.60;66.90;;;;;;5098037;28;20343;-72
2021/07/30 09:10:41;;;;;;;5.32;2.92;;;21.60;67.00;;;;;;5098380;28;20044;-72
2021/07/30 09:13:21;;;;;;;3.75;2.80;;;21.60;67.00;;;;;;5098046;28;20036;-72
2021/07/30 09:16:04;;;;;;;4.45;3.00;;;21.60;66.90;;;;;;5098258;28;20117;-72
2021/07/30 09:18:37;;;;;;;5.63;2.55;;;21.60;66.90;;;;;;5098340;28;20446;-72
2021/07/30 09:21:33;;;;;;;5.20;3.17;;;21.60;67.00;;;;;;5097699;28;20060;-73
2021/07/30 09:24:31;;;;;;;4.25;3.00;;;21.60;66.90;;;;;;5097756;28;20145;-72
2021/07/30 09:26:59;;;;;;;5.03;3.13;;;21.60;66.80;;;;;;5097232;28;20112;-72
2021/07/30 09:29:27;;;;;;;4.90;3.15;;;21.60;66.90;;;;;;5097529;28;20122;-72
2021/07/30 09:32:02;;;;;;;4.50;2.90;;;21.60;66.90;;;;;;5097604;28;20048;-72
2021/07/30 09:34:36;;;;;;;3.75;2.85;;;21.70;67.00;;;;;;5098028;28;20044;-72
2021/07/30 09:37:08;;;;;;;6.20;3.25;;;21.70;67.00;;;;;;5097676;28;20040;-72
2021/07/30 09:39:33;;;;;;;5.40;3.20;;;21.70;67.00;;;;;;5097382;28;20094;-72
2021/07/30 09:42:07;;;;;;;3.50;2.53;;;21.70;67.00;;;;;;5097333;28;20439;-72
2021/07/30 09:44:51;;;;;;;3.63;3.13;;;21.70;67.00;;;;;;5097292;28;20111;-72
2021/07/30 09:47:19;;;;;;;;;;;21.70;67.00;;;;;;5097846;28;20324;-72
2021/07/30 09:49:46;;;;;;;5.75;3.08;;;21.70;66.90;;;;;;5097660;28;19996;-72
2021/07/30 09:52:34;;;;;;;5.38;2.95;;;21.70;67.10;;;;;;5096985;28;20040;-73
2021/07/30 09:55:07;;;;;;;3.80;3.00;;;21.70;66.90;;;;;;5097063;28;20046;-72
2021/07/30 09:57:35;;;;;;;5.28;3.08;;;21.70;67.10;;;;;;5097362;28;20040;-72
2021/07/30 10:00:08;;;;;;;5.65;3.03;;;21.70;67.10;;;;;;5096797;28;20052;-72
2021/07/30 10:02:38;;;;;;;5.38;2.90;;;21.70;67.10;;;;;;5096898;28;20040;-72
2021/07/30 10:05:11;;;;;;;6.63;2.95;;;21.70;67.10;;;;;;5096958;28;20136;-72
2021/07/30 10:07:38;;;;;;;4.93;3.10;;;21.70;67.10;;;;;;5096693;28;20336;-72
2021/07/30 10:10:14;;;;;;;4.45;3.17;;;21.70;67.10;;;;;;5096694;28;20047;-72
2021/07/30 10:12:48;;;;;;;3.97;2.47;;;21.80;67.10;;;;;;5096666;28;20055;-72
2021/07/30 10:15:14;;;;;;;5.47;3.20;;;21.70;67.10;;;;;;5096548;28;20189;-72
2021/07/30 10:17:49;;;;;;;5.45;3.00;;;21.80;67.10;;;;;;5096615;28;20482;-72
2021/07/30 10:20:18;;;;;;;5.50;2.92;;;21.80;67.00;;;;;;5097065;28;20067;-72
2021/07/30 10:22:59;;;;;;;4.28;3.13;;;21.70;67.00;;;;;;5097154;28;20070;-72
2021/07/30 10:25:40;;;;;;;4.38;3.00;;;21.80;67.00;;;;;;5096455;28;20587;-72
2021/07/30 10:28:11;;;;;;;5.55;3.15;;;21.80;66.90;;;;;;5096302;28;20359;-72
2021/07/30 10:30:54;;;;;;;5.28;3.28;;;21.80;67.00;;;;;;5096145;28;20389;-72
2021/07/30 10:33:36;;;;;;;3.72;3.05;;;21.80;66.80;;;;;;5096602;28;20438;-72
2021/07/30 10:36:12;;;;;;;5.15;2.83;;;21.80;66.80;;;;;;5095497;28;20055;-72
2021/07/30 10:38:38;;;;;;;3.95;2.80;;;21.80;66.90;;;;;;5096153;28;20072;-72
2021/07/30 10:41:06;;;;;;;5.90;3.30;;;21.80;66.80;;;;;;5096204;28;20044;-72
2021/07/30 10:44:01;;;;;;;3.47;3.08;;;21.80;66.80;;;;;;5096422;28;20036;-72
2021/07/30 10:46:28;;;;;;;4.68;2.88;;;21.80;66.60;;;;;;5096498;28;20055;-72
2021/07/30 10:48:54;;;;;;;3.92;3.00;;;21.80;66.80;;;;;;5096630;28;20044;-72
2021/07/30 10:51:27;;;;;;;3.85;2.78;;;21.80;66.70;;;;;;5095919;28;20040;-72
2021/07/30 10:54:02;;;;;;;5.28;3.13;;;21.80;66.70;;;;;;5096425;28;20043;-72
2021/07/30 10:56:28;;;;;;;6.65;3.00;;;21.80;66.60;;;;;;5095945;28;20043;-72
2021/07/30 10:58:55;;;;;;;4.95;2.90;;;21.80;66.70;;;;;;5095743;28;20040;-72
2021/07/30 11:01:28;;;;;;;3.63;2.80;;;21.80;66.60;;;;;;5095682;28;20044;-72
2021/07/30 11:03:54;;;;;;;4.55;3.42;;;21.80;66.60;;;;;;5095713;28;20043;-72
2021/07/30 11:06:21;;;;;;;3.97;2.83;;;21.80;66.60;;;;;;5095842;28;20052;-72
2021/07/30 11:09:02;;;;;;;4.60;2.60;;;21.80;66.60;;;;;;5095931;28;20113;-72
2021/07/30 11:11:47;;;;;;;5.18;3.05;;;21.80;66.50;;;;;;5096137;28;20043;-72
2021/07/30 11:14:12;;;;;;;2.92;2.50;;;21.80;66.50;;;;;;5096149;28;20051;-72
2021/07/30 11:16:46;;;;;;;6.25;3.20;;;21.80;66.60;;;;;;5095441;28;20063;-72
2021/07/30 11:19:14;;;;;;;4.82;2.83;;;21.90;66.60;;;;;;5095667;28;20054;-72
2021/07/30 11:21:40;;;;;;;3.45;2.63;;;21.90;66.60;;;;;;5095673;28;20446;-72
2021/07/30 11:24:08;;;;;;;5.18;3.08;;;21.90;66.60;;;;;;5095429;28;20395;-72
2021/07/30 11:26:37;;;;;;;4.63;2.65;;;21.80;66.40;;;;;;5095472;28;20040;-72
2021/07/30 11:29:16;;;;;;;3.95;2.58;;;21.90;66.40;;;;;;5095363;28;20100;-72
2021/07/30 11:32:04;;;;;;;4.68;2.65;;;21.90;66.40;;;;;;5095123;28;20101;-72
2021/07/30 11:34:34;;;;;;;4.50;2.67;;;21.90;66.20;;;;;;5095105;28;20047;-72
2021/07/30 11:37:05;;;;;;;3.63;2.47;;;21.90;66.40;;;;;;5095294;28;20085;-72
2021/07/30 11:39:33;;;;;;;4.88;2.78;;;21.90;66.30;;;;;;5095423;28;20039;-72
2021/07/30 11:41:59;;;;;;;4.07;2.92;;;21.90;66.30;;;;;;5095321;28;20075;-71
2021/07/30 11:44:25;;;;;;;3.75;2.33;;;21.90;66.40;;;;;;5095415;28;20440;-72
2021/07/30 11:46:58;;;;;;;4.28;2.50;;;21.90;66.30;;;;;;5095060;28;20043;-72
2021/07/30 11:49:29;;;;;;;3.53;2.33;;;21.90;66.30;;;;;;5095579;28;20124;-72
2021/07/30 11:51:55;;;;;;;3.33;2.53;;;21.90;66.30;;;;;;5094930;28;20044;-72
2021/07/30 11:54:26;;;;;;;4.03;2.30;;;21.90;66.40;;;;;;5095671;28;20423;-72
2021/07/30 11:56:53;;;;;;;4.13;2.45;;;21.90;66.30;;;;;;5095280;28;20040;-72
2021/07/30 11:59:19;;;;;;;4.13;2.40;;;21.90;66.40;;;;;;5095612;28;20059;-72
2021/07/30 12:02:05;;;;;;;4.15;2.28;;;21.90;66.40;;;;;;5095066;28;20036;-72
2021/07/30 12:04:32;;;;;;;5.40;2.95;;;21.90;66.30;;;;;;5095277;28;20040;-72
2021/07/30 12:07:05;;;;;;;4.43;2.50;;;21.90;66.50;;;;;;5095023;28;20067;-72
2021/07/30 12:09:33;;;;;;;3.97;2.30;;;21.90;66.40;;;;;;5095139;28;20067;-72
2021/07/30 12:12:01;;;;;;;3.95;2.22;;;21.90;66.40;;;;;;5094630;28;20036;-73
2021/07/30 12:14:29;;;;;;;3.72;2.00;;;21.90;66.40;;;;;;5094887;28;20040;-72
2021/07/30 12:16:56;;;;;;;5.05;2.33;;;21.90;66.40;;;;;;5095086;28;20119;-72
2021/07/30 12:19:33;;;;;;;3.53;2.50;;;21.90;66.40;;;;;;5095297;28;20055;-72
2021/07/30 12:22:05;;;;;;;3.25;2.50;;;21.90;66.40;;;;;;5094909;28;20127;-72
2021/07/30 12:24:33;;;;;;;4.15;2.55;;;21.90;66.30;;;;;;5095307;28;20122;-72
2021/07/30 12:27:19;;;;;;;4.50;2.85;;;21.90;66.40;;;;;;5095091;28;20060;-72
2021/07/30 12:29:47;;;;;;;5.47;2.55;;;22.00;66.30;;;;;;5094577;28;20317;-72
2021/07/30 12:32:17;;;;;;;3.83;2.05;;;21.90;66.30;;;;;;5095143;28;20317;-72
2021/07/30 12:35:05;;;;;;;3.50;2.20;;;22.00;66.30;;;;;;5094737;28;20075;-72
2021/07/30 12:37:32;;;;;;;3.63;2.42;;;22.00;66.30;;;;;;5094759;28;20119;-72
2021/07/30 12:40:00;;;;;;;3.95;2.20;;;22.00;66.30;;;;;;5095028;28;20047;-72
2021/07/30 12:42:28;;;;;;;3.83;2.45;;;22.00;66.30;;;;;;5095004;28;20032;-72
2021/07/30 12:45:05;;;;;;;4.35;2.50;;;22.00;66.30;;;;;;5094944;28;20036;-72
2021/07/30 12:47:31;;;;;;;3.53;2.40;;;22.00;66.30;;;;;;5095079;28;20051;-71
2021/07/30 12:49:57;;;;;;;5.15;2.67;;;22.00;66.30;;;;;;5094600;28;20401;-72
2021/07/30 12:52:23;;;;;;;3.42;2.28;;;22.00;66.30;;;;;;5094557;28;20447;-72